Jacobsburg, Ohio
Current Conditions -  °F | °C
As of 1:53 AM on Sunday 23 Nov 2014 (Local Time) from KHLG Reporting Station
Overcast Overcast  
Wind Chill: 50°   Ceiling: 11000
Heat Index: 50°   Visibility: 10mi
Dew Point: 26°   Wind: 10mph
Humidity: 39%   Direction: 210°SSW
Pressure: 30.09"   Gusts: NA
Location:  39.97°N, 80.9°W
Report Text: KHLG 230653Z AUTO 21009KT 10SM FEW080 OVC110 10/M03 A3009 RMK AO2 SLP198 T01001033
Loading
Personal Weather Stations






























Interactive Weather Map New forecast layout! Learn more

10-Day Weather Forecast

Advertisements
Track Severe Weather on mobile